Pagrindinis puslapis
METAR-TAF:

METAR-TAF

Oro uostai :

Kašanas, Iranas

platuma: 33-59N, ilguma: 051-27E, Aukštis: 982 m

Dabartinis oras

Ataskaita buvo paskelbta 1 valandą ir 44 minutes, ne 08:00 UTC
Ramus vėjas
Temperatūra 8°C
Drėgmė 76%
Slėgis 1021 hPa
Matomumas 10 km arba daugiau
Išsisklaidę debesys ne aukštis 3500 ft
Su prošvaistėmis ne aukštis 10000 ft

METAR: OIFK 190800Z 00000KT 9999 SCT035 BKN100 08/04 Q1021 A3016

Laikas: 13:14 (09:44 UTC)


TAF: trūkstamas

Orai ataskaitas ir orų prognozės (METAR, TAF).

turimą stotys yra geltonos ir raudonos taškus žemėlapyje.

Perkelti pele per norėdami pamatyti stoties vardą.

Tada spustelėkite, norėdami matyti oro stebėjimo ir prognozės.

Norėdami pakeisti žemėlapį: spustelėkite ant žalios mygtukų su juodo kryžiaus žemyn,; žalią mygtuką su brūkšneliu, jei norite nutolinti; arba žalių rodyklių gretimoms žemėlapius.


METAR-TAF: